sensor_id;sensor_type;location;lat;lon;timestamp;pressure;altitude;pressure_sealevel;temperature;humidity
48644;BME280;34928;37.302;-121.984;2022-10-18T00:09:37;100889.0;;;29.77;26.62
48644;BME280;34928;37.302;-121.984;2022-10-18T00:19:42;100888.0;;;29.66;26.64
48644;BME280;34928;37.302;-121.984;2022-10-18T00:29:51;100890.0;;;29.62;26.61
48644;BME280;34928;37.302;-121.984;2022-10-18T00:39:57;100894.0;;;29.51;26.65
48644;BME280;34928;37.302;-121.984;2022-10-18T00:50:04;100896.0;;;29.24;27.08
48644;BME280;34928;37.302;-121.984;2022-10-18T01:00:13;100904.0;;;29.07;26.07
48644;BME280;34928;37.302;-121.984;2022-10-18T01:10:25;100911.0;;;29.56;26.89
48644;BME280;34928;37.302;-121.984;2022-10-18T01:20:54;100912.0;;;29.40;27.16
48644;BME280;34928;37.302;-121.984;2022-10-18T01:31:03;100918.0;;;29.05;27.53
48644;BME280;34928;37.302;-121.984;2022-10-18T01:41:08;100922.0;;;28.99;27.52
48644;BME280;34928;37.302;-121.984;2022-10-18T01:51:12;100930.0;;;28.98;27.54
48644;BME280;34928;37.302;-121.984;2022-10-18T02:01:27;100939.0;;;29.00;27.61
48644;BME280;34928;37.302;-121.984;2022-10-18T02:11:34;100949.0;;;29.06;27.98
48644;BME280;34928;37.302;-121.984;2022-10-18T02:21:43;100956.0;;;29.52;27.90
48644;BME280;34928;37.302;-121.984;2022-10-18T02:31:50;100962.0;;;29.90;27.81
48644;BME280;34928;37.302;-121.984;2022-10-18T02:41:58;100975.0;;;29.67;27.86
48644;BME280;34928;37.302;-121.984;2022-10-18T02:52:03;100977.0;;;29.63;27.77
48644;BME280;34928;37.302;-121.984;2022-10-18T03:02:07;100980.0;;;29.61;27.83
48644;BME280;34928;37.302;-121.984;2022-10-18T03:12:12;100985.0;;;29.93;27.65
48644;BME280;34928;37.302;-121.984;2022-10-18T03:22:17;100990.0;;;29.89;27.66
48644;BME280;34928;37.302;-121.984;2022-10-18T03:32:22;100991.0;;;29.68;27.82
48644;BME280;34928;37.302;-121.984;2022-10-18T03:42:27;101000.0;;;29.42;27.81
48644;BME280;34928;37.302;-121.984;2022-10-18T03:52:32;101001.0;;;29.58;27.78
48644;BME280;34928;37.302;-121.984;2022-10-18T04:02:37;101003.0;;;29.49;27.81
48644;BME280;34928;37.302;-121.984;2022-10-18T04:12:42;101009.0;;;29.48;27.70
48644;BME280;34928;37.302;-121.984;2022-10-18T04:22:48;101018.0;;;29.51;27.58
48644;BME280;34928;37.302;-121.984;2022-10-18T04:32:52;101018.0;;;29.63;27.40
48644;BME280;34928;37.302;-121.984;2022-10-18T04:42:57;101019.0;;;29.51;27.63
48644;BME280;34928;37.302;-121.984;2022-10-18T04:53:02;101023.0;;;29.65;27.72
48644;BME280;34928;37.302;-121.984;2022-10-18T05:03:08;101034.0;;;29.40;28.08
48644;BME280;34928;37.302;-121.984;2022-10-18T05:13:12;101040.0;;;29.39;28.05
48644;BME280;34928;37.302;-121.984;2022-10-18T05:23:17;101041.0;;;29.51;27.78
48644;BME280;34928;37.302;-121.984;2022-10-18T05:33:22;101050.0;;;29.45;27.76
48644;BME280;34928;37.302;-121.984;2022-10-18T05:43:28;101062.0;;;29.75;27.61
48644;BME280;34928;37.302;-121.984;2022-10-18T05:53:32;101058.0;;;29.60;27.42
48644;BME280;34928;37.302;-121.984;2022-10-18T06:03:37;101064.0;;;29.41;27.66
48644;BME280;34928;37.302;-121.984;2022-10-18T06:13:43;101055.0;;;29.26;27.88
48644;BME280;34928;37.302;-121.984;2022-10-18T06:23:48;101041.0;;;29.29;27.83
48644;BME280;34928;37.302;-121.984;2022-10-18T06:33:54;101046.0;;;29.41;27.83
48644;BME280;34928;37.302;-121.984;2022-10-18T06:43:58;101038.0;;;29.46;28.13
48644;BME280;34928;37.302;-121.984;2022-10-18T06:54:03;101035.0;;;29.18;28.26
48644;BME280;34928;37.302;-121.984;2022-10-18T07:04:08;101038.0;;;29.24;28.19
48644;BME280;34928;37.302;-121.984;2022-10-18T07:14:13;101036.0;;;29.39;28.24
48644;BME280;34928;37.302;-121.984;2022-10-18T07:24:17;101038.0;;;29.23;28.17
48644;BME280;34928;37.302;-121.984;2022-10-18T07:34:22;101042.0;;;29.10;28.24
48644;BME280;34928;37.302;-121.984;2022-10-18T07:44:27;101054.0;;;29.38;27.93
48644;BME280;34928;37.302;-121.984;2022-10-18T07:54:32;101054.0;;;28.99;28.16
48644;BME280;34928;37.302;-121.984;2022-10-18T08:04:37;101056.0;;;29.16;28.14
48644;BME280;34928;37.302;-121.984;2022-10-18T08:14:43;101066.0;;;29.33;27.90
48644;BME280;34928;37.302;-121.984;2022-10-18T08:24:47;101065.0;;;29.01;27.91
48644;BME280;34928;37.302;-121.984;2022-10-18T08:34:52;101063.0;;;29.10;28.03
48644;BME280;34928;37.302;-121.984;2022-10-18T08:44:58;101062.0;;;29.19;27.88
48644;BME280;34928;37.302;-121.984;2022-10-18T08:55:08;101063.0;;;28.78;28.04
48644;BME280;34928;37.302;-121.984;2022-10-18T09:05:21;101067.0;;;29.16;28.17
48644;BME280;34928;37.302;-121.984;2022-10-18T09:15:35;101063.0;;;28.88;28.12
48644;BME280;34928;37.302;-121.984;2022-10-18T09:25:45;101061.0;;;29.03;28.21
48644;BME280;34928;37.302;-121.984;2022-10-18T09:35:51;101069.0;;;28.66;28.29
48644;BME280;34928;37.302;-121.984;2022-10-18T09:45:57;101070.0;;;28.59;28.26
48644;BME280;34928;37.302;-121.984;2022-10-18T09:56:05;101065.0;;;28.88;28.18
48644;BME280;34928;37.302;-121.984;2022-10-18T10:06:22;101069.0;;;28.83;28.13
48644;BME280;34928;37.302;-121.984;2022-10-18T10:16:28;101075.0;;;28.90;28.01
48644;BME280;34928;37.302;-121.984;2022-10-18T10:26:34;101074.0;;;28.96;27.87
48644;BME280;34928;37.302;-121.984;2022-10-18T10:36:47;101075.0;;;28.37;28.23
48644;BME280;34928;37.302;-121.984;2022-10-18T10:46:53;101076.0;;;28.59;28.21
48644;BME280;34928;37.302;-121.984;2022-10-18T10:57:00;101080.0;;;28.47;28.24
48644;BME280;34928;37.302;-121.984;2022-10-18T11:07:17;101077.0;;;28.42;28.27
48644;BME280;34928;37.302;-121.984;2022-10-18T11:17:33;101071.0;;;28.40;28.30
48644;BME280;34928;37.302;-121.984;2022-10-18T11:27:41;101070.0;;;28.42;28.17
48644;BME280;34928;37.302;-121.984;2022-10-18T11:38:03;101069.0;;;28.48;27.99
48644;BME280;34928;37.302;-121.984;2022-10-18T11:48:22;101067.0;;;28.43;27.96
48644;BME280;34928;37.302;-121.984;2022-10-18T11:58:46;101071.0;;;28.07;28.24
48644;BME280;34928;37.302;-121.984;2022-10-18T12:08:56;101079.0;;;28.18;28.34
48644;BME280;34928;37.302;-121.984;2022-10-18T12:19:06;101076.0;;;28.03;28.21
48644;BME280;34928;37.302;-121.984;2022-10-18T12:29:20;101082.0;;;27.96;28.23
48644;BME280;34928;37.302;-121.984;2022-10-18T12:39:31;101084.0;;;27.96;28.15
48644;BME280;34928;37.302;-121.984;2022-10-18T12:49:38;101087.0;;;28.11;28.13
48644;BME280;34928;37.302;-121.984;2022-10-18T12:59:42;101099.0;;;28.15;28.08
48644;BME280;34928;37.302;-121.984;2022-10-18T13:20:20;101115.0;;;27.77;28.12
48644;BME280;34928;37.302;-121.984;2022-10-18T13:30:38;101126.0;;;27.65;28.16
48644;BME280;34928;37.302;-121.984;2022-10-18T13:40:42;101127.0;;;27.65;28.10
48644;BME280;34928;37.302;-121.984;2022-10-18T13:50:49;101136.0;;;27.39;28.03
48644;BME280;34928;37.302;-121.984;2022-10-18T14:01:02;101139.0;;;27.71;28.11
48644;BME280;34928;37.302;-121.984;2022-10-18T14:11:22;101146.0;;;28.01;28.13
48644;BME280;34928;37.302;-121.984;2022-10-18T14:21:33;101154.0;;;27.80;29.13
48644;BME280;34928;37.302;-121.984;2022-10-18T14:31:37;101159.0;;;28.04;29.41
48644;BME280;34928;37.302;-121.984;2022-10-18T14:41:48;101171.0;;;28.35;28.36
48644;BME280;34928;37.302;-121.984;2022-10-18T14:51:54;101181.0;;;27.91;28.80
48644;BME280;34928;37.302;-121.984;2022-10-18T15:01:59;101192.0;;;27.45;29.11
48644;BME280;34928;37.302;-121.984;2022-10-18T15:12:07;101212.0;;;27.50;28.82
48644;BME280;34928;37.302;-121.984;2022-10-18T15:22:22;101227.0;;;27.41;28.69
48644;BME280;34928;37.302;-121.984;2022-10-18T15:32:29;101241.0;;;27.53;28.61
48644;BME280;34928;37.302;-121.984;2022-10-18T15:42:37;101251.0;;;27.27;28.45
48644;BME280;34928;37.302;-121.984;2022-10-18T15:52:43;101258.0;;;27.41;28.41
48644;BME280;34928;37.302;-121.984;2022-10-18T16:02:47;101269.0;;;27.41;28.30
48644;BME280;34928;37.302;-121.984;2022-10-18T16:12:53;101279.0;;;27.43;28.41
48644;BME280;34928;37.302;-121.984;2022-10-18T16:22:57;101279.0;;;27.64;28.10
48644;BME280;34928;37.302;-121.984;2022-10-18T16:33:02;101279.0;;;27.62;28.09
48644;BME280;34928;37.302;-121.984;2022-10-18T16:43:07;101284.0;;;27.40;28.03
48644;BME280;34928;37.302;-121.984;2022-10-18T16:53:13;101285.0;;;27.34;28.06
48644;BME280;34928;37.302;-121.984;2022-10-18T17:03:17;101286.0;;;27.09;28.05
48644;BME280;34928;37.302;-121.984;2022-10-18T17:13:23;101285.0;;;27.58;28.00
48644;BME280;34928;37.302;-121.984;2022-10-18T17:23:27;101279.0;;;27.32;28.05
48644;BME280;34928;37.302;-121.984;2022-10-18T17:33:32;101275.0;;;27.39;27.98
48644;BME280;34928;37.302;-121.984;2022-10-18T17:43:37;101265.0;;;27.42;27.95
48644;BME280;34928;37.302;-121.984;2022-10-18T17:53:43;101258.0;;;27.31;27.87
48644;BME280;34928;37.302;-121.984;2022-10-18T18:03:48;101253.0;;;27.53;27.91
48644;BME280;34928;37.302;-121.984;2022-10-18T18:13:54;101243.0;;;27.48;27.78
48644;BME280;34928;37.302;-121.984;2022-10-18T18:23:57;101229.0;;;27.71;27.85
48644;BME280;34928;37.302;-121.984;2022-10-18T18:34:02;101216.0;;;27.91;27.84
48644;BME280;34928;37.302;-121.984;2022-10-18T18:44:07;101214.0;;;28.04;27.53
48644;BME280;34928;37.302;-121.984;2022-10-18T18:54:13;101206.0;;;27.73;27.77
48644;BME280;34928;37.302;-121.984;2022-10-18T19:04:17;101194.0;;;27.83;27.74
48644;BME280;34928;37.302;-121.984;2022-10-18T19:14:23;101184.0;;;27.79;27.83
48644;BME280;34928;37.302;-121.984;2022-10-18T19:24:29;101174.0;;;27.87;27.81
48644;BME280;34928;37.302;-121.984;2022-10-18T19:34:33;101172.0;;;28.28;27.66
48644;BME280;34928;37.302;-121.984;2022-10-18T19:44:38;101163.0;;;28.04;27.76
48644;BME280;34928;37.302;-121.984;2022-10-18T19:54:42;101141.0;;;27.92;27.95
48644;BME280;34928;37.302;-121.984;2022-10-18T20:04:47;101126.0;;;28.19;27.92
48644;BME280;34928;37.302;-121.984;2022-10-18T20:14:52;101110.0;;;27.97;28.18
48644;BME280;34928;37.302;-121.984;2022-10-18T20:24:57;101100.0;;;28.17;28.09
48644;BME280;34928;37.302;-121.984;2022-10-18T20:35:02;101086.0;;;28.43;28.00
48644;BME280;34928;37.302;-121.984;2022-10-18T20:45:08;101072.0;;;28.51;28.04
48644;BME280;34928;37.302;-121.984;2022-10-18T20:55:12;101052.0;;;28.80;27.76
48644;BME280;34928;37.302;-121.984;2022-10-18T21:05:17;101042.0;;;28.92;27.65
48644;BME280;34928;37.302;-121.984;2022-10-18T21:15:22;101027.0;;;28.72;27.68
48644;BME280;34928;37.302;-121.984;2022-10-18T21:25:27;101013.0;;;28.88;27.81
48644;BME280;34928;37.302;-121.984;2022-10-18T21:35:34;101002.0;;;28.79;28.06
48644;BME280;34928;37.302;-121.984;2022-10-18T21:45:37;101003.0;;;28.82;27.99
48644;BME280;34928;37.302;-121.984;2022-10-18T21:55:43;100992.0;;;28.82;27.87
48644;BME280;34928;37.302;-121.984;2022-10-18T22:05:56;100986.0;;;28.91;27.78
48644;BME280;34928;37.302;-121.984;2022-10-18T22:16:04;100983.0;;;29.37;27.70
48644;BME280;34928;37.302;-121.984;2022-10-18T22:26:09;100985.0;;;29.52;27.59
48644;BME280;34928;37.302;-121.984;2022-10-18T22:36:13;100986.0;;;29.44;27.70
48644;BME280;34928;37.302;-121.984;2022-10-18T22:46:17;100987.0;;;29.58;28.33
48644;BME280;34928;37.302;-121.984;2022-10-18T22:56:23;100982.0;;;29.35;29.01
48644;BME280;34928;37.302;-121.984;2022-10-18T23:06:29;100982.0;;;29.49;29.13
48644;BME280;34928;37.302;-121.984;2022-10-18T23:16:33;100975.0;;;29.39;29.52
48644;BME280;34928;37.302;-121.984;2022-10-18T23:26:37;100972.0;;;29.36;29.43
48644;BME280;34928;37.302;-121.984;2022-10-18T23:36:42;100968.0;;;29.51;29.10
48644;BME280;34928;37.302;-121.984;2022-10-18T23:46:47;100958.0;;;29.67;29.16
48644;BME280;34928;37.302;-121.984;2022-10-18T23:56:52;100955.0;;;29.90;28.83
